Portada
METAR-TAF:

METAR-TAF

Aeroports :

Hickory, Carolina del Nord, Estats Units d'Amèrica

latitud: 35-44-32N, longitud: 081-22-56W, altitud: 362 m

Observació

L'informe es va fer fa 39 minuts, a les 13:53 UTC
Vent calma
Temperatura 22°C
Humitat 60%
Pressió 1017 hPa
Visibilitat: 16.1 km
Cel clar

METAR: KHKY 211353Z 00000KT 10SM CLR 22/14 A3004 RMK AO2 SLP150 T02220139

Hora: 10:32 (14:32 UTC)

Pronòstic

L'informe es va fer fa 3 hores i 3 minuts, a les 11:29 UTC
Pronòstic vàlid del 21 a les 12 UTC al 22 a les 12 UTC
Vent 3 kt amb direcció variable
Visibilitat: 10 km
Escasses núvols a una alçada de 20000 ft
A partir de les 22 a les 0600 UTC
Vent 5 kt del Est/Nord-Est
Visibilitat: 10 km
Núvols disperses a una alçada de 5000 ft
Núvols disperses a una alçada de 25000 ft

TAF: KHKY 211129Z 2112/2212 VRB03KT P6SM FEW200 FM220600 07005KT P6SM SCT050 SCT250

Observacions i pronòstics meteorològics de més de 4000 aeroports (METAR i TAF).

Les estacions disponibles són els punts grocs i vermells al mapa.

Posi el ratolí al punt desitjat per veure el nom de l'estació.

Feu clic per veure les observacions i els pronòstics meteorològics.

Per canviar el mapa: feu clic els botons verds amb una creu de color negre per apropar; al botó verd amb un guió per allunyar la imatge; o en les fletxes verdes per a mapes adjacents.


METAR-TAF: